^^
Meteo Knjazevac Station Historical Data
Daily Summary for March 15, 2021 Units:  Metric    English   Both
Daily Weekly Monthly Yearly Custom
  High: Low: Average:
Temperature: 19.4 °C 14.7 °C 16.3 °C
Dew Point: 14.2 °C 12.2 °C 13 °C
Humidity: 86% 72% 81%
Wind Speed: 8km/h 0km/h 2.4km/h
Wind Gust: 9.7km/h - -
Wind- - West
Pressure: 1021.2 hPa 1020.5 hPa -
Precipitation: 0 mm    
Historical Graphs
 
 
Tabular Data for March 15, 2021
Time Temperature Dew Point Pressure Wind Wind Speed Wind Gust Humidity Rainfall Rate (Hourly) solar Conditions
00:00 19.4 °C 14.2 °C 1021.2 hPa Calm   3.2 km/h 72% 0 mm 0 W/m2
00:10 19.1 °C 14.2 °C 1021.2 hPa Calm   3.2 km/h 73% 0 mm 0 W/m2
00:20 18.8 °C 14.1 °C 1021.2 hPa West 1.6 km/h 3.2 km/h 74% 0 mm 0 W/m2
00:30 18.4 °C 13.7 °C 1021.2 hPa Calm   3.2 km/h 74% 0 mm 0 W/m2
00:40 18.3 °C 13.8 °C 1021.2 hPa West 3.2 km/h 4.8 km/h 75% 0 mm 0 W/m2
00:50 18.2 °C 13.7 °C 1020.9 hPa West 3.2 km/h 6.4 km/h 75% 0 mm 0 W/m2
01:00 18.1 °C 13.6 °C 1020.9 hPa West 1.6 km/h 6.4 km/h 75% 0 mm 0 W/m2
01:10 18 °C 13.9 °C 1020.9 hPa WNW 3.2 km/h 6.4 km/h 77% 0 mm 0 W/m2
01:20 17.9 °C 13.8 °C 1020.9 hPa WNW 3.2 km/h 6.4 km/h 77% 0 mm 0 W/m2
01:30 17.7 °C 13.6 °C 1020.9 hPa West 3.2 km/h 6.4 km/h 77% 0 mm 0 W/m2
01:40 17.5 °C 13.4 °C 1020.9 hPa West 1.6 km/h 4.8 km/h 77% 0 mm 0 W/m2
01:50 17.3 °C 13.4 °C 1020.9 hPa WSW 3.2 km/h 6.4 km/h 78% 0 mm 0 W/m2
02:00 17 °C 13.3 °C 1020.9 hPa West 1.6 km/h 6.4 km/h 79% 0 mm 0 W/m2
02:10 16.9 °C 13.2 °C 1020.9 hPa West 3.2 km/h 6.4 km/h 79% 0 mm 0 W/m2
02:20 16.9 °C 13.2 °C 1020.9 hPa West 1.6 km/h 8 km/h 79% 0 mm 0 W/m2
02:30 16.7 °C 13.1 °C 1020.9 hPa West 3.2 km/h 6.4 km/h 79% 0 mm 0 W/m2
02:40 16.6 °C 13.1 °C 1020.9 hPa West 3.2 km/h 6.4 km/h 80% 0 mm 0 W/m2
02:50 16.5 °C 13.1 °C 1020.9 hPa WSW 3.2 km/h 6.4 km/h 80% 0 mm 0 W/m2
03:00 16.4 °C 12.9 °C 1020.9 hPa West 3.2 km/h 6.4 km/h 80% 0 mm 0 W/m2
03:10 16.5 °C 13.1 °C 1020.9 hPa West 3.2 km/h 6.4 km/h 80% 0 mm 0 W/m2
03:20 16.4 °C 12.9 °C 1020.9 hPa WSW 3.2 km/h 6.4 km/h 80% 0 mm 0 W/m2
03:30 16.1 °C 12.8 °C 1020.9 hPa WSW 1.6 km/h 6.4 km/h 81% 0 mm 0 W/m2
03:40 15.8 °C 12.6 °C 1020.5 hPa West 3.2 km/h 6.4 km/h 81% 0 mm 0 W/m2
03:50 15.8 °C 12.9 °C 1020.5 hPa Calm   4.8 km/h 83% 0 mm 0 W/m2
04:00 15.6 °C 12.7 °C 1020.9 hPa West 3.2 km/h 4.8 km/h 83% 0 mm 0 W/m2
04:10 15.5 °C 12.6 °C 1020.9 hPa West 1.6 km/h 4.8 km/h 83% 0 mm 0 W/m2
04:20 15.4 °C 12.5 °C 1020.9 hPa Calm   4.8 km/h 83% 0 mm 0 W/m2
04:30 15.2 °C 12.5 °C 1020.9 hPa West 1.6 km/h 4.8 km/h 84% 0 mm 0 W/m2
04:40 15.2 °C 12.5 °C 1020.9 hPa West 1.6 km/h 4.8 km/h 84% 0 mm 0 W/m2
04:50 15.2 °C 12.5 °C 1020.9 hPa WSW 3.2 km/h 4.8 km/h 84% 0 mm 0 W/m2
05:00 15 °C 12.3 °C 1020.9 hPa SW 1.6 km/h 4.8 km/h 84% 0 mm 0 W/m2
05:10 14.9 °C 12.4 °C 1020.9 hPa WSW 1.6 km/h 4.8 km/h 85% 0 mm 0 W/m2
05:20 14.9 °C 12.4 °C 1020.9 hPa West 1.6 km/h 4.8 km/h 85% 0 mm 0 W/m2
05:30 14.8 °C 12.3 °C 1020.9 hPa West 1.6 km/h 4.8 km/h 85% 0 mm 0 W/m2
05:40 14.7 °C 12.2 °C 1020.9 hPa WSW 1.6 km/h 8 km/h 85% 0 mm 6 W/m2
05:50 14.7 °C 12.4 °C 1020.9 hPa West 8 km/h 9.7 km/h 86% 0 mm 12 W/m2
06:00 14.7 °C 12.3 °C 1020.9 hPa West 4.8 km/h 9.7 km/h 86% 0 mm 21 W/m2
06:10 14.7 °C 12.4 °C 1020.9 hPa West 4.8 km/h 8 km/h 86% 0 mm 35 W/m2
06:20 14.8 °C 12.5 °C 1021.2 hPa West 4.8 km/h 8 km/h 86% 0 mm 51 W/m2
06:30 14.8 °C 12.5 °C 1021.2 hPa West 1.6 km/h 8 km/h 86% 0 mm 71 W/m2
06:40 14.9 °C 12.6 °C 1021.2 hPa WSW 1.6 km/h 4.8 km/h 86% 0 mm 92 W/m2
06:50 15 °C 12.7 °C 1021.2 hPa West 1.6 km/h 4.8 km/h 86% 0 mm 118 W/m2
07:00 15.2 °C 12.9 °C 1021.2 hPa WNW 1.6 km/h 3.2 km/h 86% 0 mm 145 W/m2
07:10 15.6 °C 13.1 °C 1021.2 hPa WNW 1.6 km/h 6.4 km/h 85% 0 mm 172 W/m2
Knjazevac, Serbia
Compliments of Weather Underground - 2 mb